createdAt,value
2019-04-23T00:00:13.547Z,1.77
2019-04-23T00:01:23.586Z,2.00
2019-04-23T00:02:18.523Z,2.10
2019-04-23T00:03:30.228Z,1.60
2019-04-23T00:04:23.946Z,1.73
2019-04-23T00:05:51.464Z,1.90
2019-04-23T00:06:42.928Z,1.90
2019-04-23T00:07:49.803Z,1.57
2019-04-23T00:09:10.925Z,1.50
2019-04-23T00:09:57.616Z,1.80
2019-04-23T00:10:58.751Z,1.87
2019-04-23T00:11:59.831Z,1.63
2019-04-23T00:12:59.253Z,1.60
2019-04-23T00:14:15.152Z,1.80
2019-04-23T00:15:10.468Z,2.10
2019-04-23T00:16:20.436Z,1.80
2019-04-23T00:17:35.777Z,1.93
2019-04-23T00:18:37.765Z,1.57
2019-04-23T00:19:33.018Z,1.93
2019-04-23T00:20:33.933Z,1.90
2019-04-23T00:22:52.854Z,2.20
2019-04-23T00:24:01.687Z,1.70
2019-04-23T00:26:02.698Z,1.87
2019-04-23T00:27:15.634Z,2.00
2019-04-23T00:28:16.411Z,1.63
2019-04-23T00:29:21.922Z,1.67
2019-04-23T00:30:27.597Z,1.70
2019-04-23T00:31:24.024Z,1.80
2019-04-23T00:33:50.673Z,1.70
2019-04-23T00:34:45.314Z,1.77
2019-04-23T00:35:43.369Z,1.87
2019-04-23T00:36:51.373Z,2.00
2019-04-23T00:37:54.907Z,1.87
2019-04-23T00:38:54.276Z,2.10
2019-04-23T00:40:03.160Z,1.70
2019-04-23T00:41:09.308Z,1.77
2019-04-23T00:42:17.658Z,1.57
2019-04-23T00:44:29.798Z,1.90
2019-04-23T00:45:33.156Z,2.10
2019-04-23T00:46:36.859Z,1.90
2019-04-23T00:47:48.510Z,1.67
2019-04-23T00:49:51.295Z,2.10
2019-04-23T00:52:02.087Z,2.00
2019-04-23T00:53:18.899Z,1.73
2019-04-23T00:54:05.930Z,1.77
2019-04-23T00:55:14.477Z,1.73
2019-04-23T00:56:32.433Z,1.90
2019-04-23T00:57:24.256Z,1.60
2019-04-23T00:58:32.403Z,1.70
2019-04-23T00:59:31.038Z,1.60
2019-04-23T01:01:45.764Z,1.80
2019-04-23T01:02:49.302Z,2.13
2019-04-23T01:03:48.319Z,1.93
2019-04-23T01:04:55.896Z,1.73
2019-04-23T01:05:57.119Z,1.77
2019-04-23T01:07:04.448Z,1.77
2019-04-23T01:08:06.983Z,1.70
2019-04-23T01:09:08.493Z,2.10
2019-04-23T01:10:13.954Z,1.87
2019-04-23T01:11:20.757Z,1.80
2019-04-23T01:12:31.169Z,2.33
2019-04-23T01:13:36.723Z,1.70
2019-04-23T01:14:33.834Z,2.00
2019-04-23T01:15:54.005Z,1.53
2019-04-23T01:16:38.107Z,1.87
2019-04-23T01:17:51.072Z,2.17
2019-04-23T01:18:51.305Z,1.77
2019-04-23T01:19:54.760Z,1.90
2019-04-23T01:20:54.771Z,1.90
2019-04-23T01:21:43.552Z,2.10
2019-04-23T01:22:46.553Z,1.80
2019-04-23T01:23:54.821Z,1.80
2019-04-23T01:25:07.362Z,1.40
2019-04-23T01:26:16.397Z,1.70
2019-04-23T01:27:41.115Z,1.70
2019-04-23T01:28:39.987Z,1.80
2019-04-23T01:29:42.842Z,2.00
2019-04-23T01:30:40.908Z,1.60
2019-04-23T01:31:47.564Z,2.30
2019-04-23T01:32:51.326Z,1.80
2019-04-23T01:33:56.621Z,2.03
2019-04-23T01:35:12.730Z,1.83
2019-04-23T01:36:16.245Z,1.90
2019-04-23T01:37:12.605Z,1.77
2019-04-23T01:38:24.134Z,1.90
2019-04-23T01:39:15.784Z,2.00
2019-04-23T01:40:29.840Z,2.00
2019-04-23T01:41:26.530Z,2.10
2019-04-23T01:42:41.853Z,1.80
2019-04-23T01:45:47.900Z,1.90
2019-04-23T01:46:56.130Z,2.00
2019-04-23T01:47:58.433Z,2.17
2019-04-23T01:49:20.717Z,1.90
2019-04-23T01:51:09.725Z,1.93
2019-04-23T01:52:17.922Z,2.03
2019-04-23T01:54:25.976Z,2.23
2019-04-23T01:56:33.721Z,1.90
2019-04-23T01:57:47.333Z,1.90
2019-04-23T01:58:44.098Z,1.63
2019-04-23T01:59:55.231Z,2.43
2019-04-23T02:00:54.443Z,2.03
2019-04-23T02:01:58.210Z,1.80
2019-04-23T02:04:15.245Z,1.90
2019-04-23T02:05:38.508Z,2.00
2019-04-23T02:06:20.553Z,2.00
2019-04-23T02:07:30.647Z,2.03
2019-04-23T02:08:28.065Z,1.53
2019-04-23T02:09:35.724Z,2.07
2019-04-23T02:10:47.593Z,2.10
2019-04-23T02:11:42.165Z,1.70
2019-04-23T02:12:53.603Z,1.80
2019-04-23T02:14:57.270Z,1.50
2019-04-23T02:16:01.313Z,2.07
2019-04-23T02:17:10.523Z,1.77
2019-04-23T02:18:11.495Z,1.90
2019-04-23T02:19:19.658Z,1.80
2019-04-23T02:20:25.922Z,2.10
2019-04-23T02:21:26.109Z,1.60
2019-04-23T02:22:31.503Z,2.00
2019-04-23T02:24:45.688Z,1.67
2019-04-23T02:25:54.112Z,1.77
2019-04-23T02:26:43.469Z,2.07
2019-04-23T02:27:59.908Z,2.03
2019-04-23T02:28:59.143Z,1.87
2019-04-23T02:30:15.609Z,1.77
2019-04-23T02:31:21.421Z,2.00
2019-04-23T02:32:12.104Z,1.90
2019-04-23T02:34:40.993Z,1.70
2019-04-23T02:35:42.706Z,2.13
2019-04-23T02:36:40.520Z,2.07
2019-04-23T02:37:58.274Z,2.10
2019-04-23T02:38:52.367Z,2.00
2019-04-23T02:42:07.403Z,1.60
2019-04-23T02:44:15.185Z,2.00
2019-04-23T02:45:09.416Z,1.87
2019-04-23T02:47:30.001Z,1.80
2019-04-23T02:49:44.145Z,1.70
2019-04-23T02:50:48.759Z,1.83
2019-04-23T02:51:48.094Z,1.77
2019-04-23T02:52:48.991Z,2.03
2019-04-23T02:54:06.336Z,1.60
2019-04-23T02:55:03.765Z,1.90
2019-04-23T02:56:24.118Z,1.90
2019-04-23T02:59:25.452Z,2.00
2019-04-23T03:00:28.822Z,1.70
2019-04-23T03:01:28.008Z,2.00
2019-04-23T03:04:41.788Z,1.90
2019-04-23T03:05:46.363Z,2.27
2019-04-23T03:06:56.067Z,1.90
2019-04-23T03:07:54.212Z,1.60
2019-04-23T03:08:49.177Z,1.90
2019-04-23T03:11:26.022Z,2.07
2019-04-23T03:12:15.960Z,1.80
2019-04-23T03:13:32.060Z,1.97
2019-04-23T03:15:50.051Z,1.97
2019-04-23T03:16:38.102Z,1.80
2019-04-23T03:17:36.951Z,2.03
2019-04-23T03:18:47.872Z,1.60
2019-04-23T03:19:47.254Z,2.07
2019-04-23T03:21:21.719Z,1.90
2019-04-23T03:24:13.410Z,1.90
2019-04-23T03:25:10.283Z,1.70
2019-04-23T03:27:22.940Z,1.90
2019-04-23T03:28:29.680Z,2.30
2019-04-23T03:31:34.094Z,1.90
2019-04-23T03:33:11.077Z,1.50
2019-04-23T03:34:26.228Z,1.80
2019-04-23T03:38:08.293Z,1.93
2019-04-23T03:38:55.995Z,1.70
2019-04-23T03:40:18.790Z,1.73
2019-04-23T03:42:22.368Z,1.73
2019-04-23T03:43:33.248Z,2.07
2019-04-23T03:44:44.591Z,1.70
2019-04-23T03:46:40.278Z,1.83
2019-04-23T03:47:48.243Z,1.97
2019-04-23T03:50:54.797Z,1.90
2019-04-23T03:52:16.895Z,1.70
2019-04-23T03:53:14.094Z,2.03
2019-04-23T03:54:26.282Z,1.97
2019-04-23T03:55:32.761Z,1.90
2019-04-23T03:58:39.449Z,2.17
2019-04-23T04:02:03.469Z,2.10
2019-04-23T04:03:03.741Z,1.90
2019-04-23T04:04:20.653Z,2.10
2019-04-23T04:05:06.101Z,2.40
2019-04-23T04:10:29.009Z,1.70
2019-04-23T04:12:35.443Z,1.90
2019-04-23T04:13:42.802Z,1.93
2019-04-23T04:14:46.561Z,1.70
2019-04-23T04:15:57.172Z,1.90
2019-04-23T04:16:59.591Z,2.23
2019-04-23T04:18:13.948Z,2.00
2019-04-23T04:19:29.443Z,2.13
2019-04-23T04:21:22.439Z,1.57
2019-04-23T04:22:37.374Z,1.90
2019-04-23T04:26:46.683Z,1.80
2019-04-23T04:27:47.993Z,2.20
2019-04-23T04:28:46.048Z,1.83
2019-04-23T04:30:48.470Z,1.90
2019-04-23T04:33:05.952Z,1.77
2019-04-23T04:34:21.413Z,1.80
2019-04-23T04:36:20.402Z,1.90
2019-04-23T04:39:34.072Z,1.90
2019-04-23T04:40:39.178Z,1.77
2019-04-23T04:42:58.560Z,2.30
2019-04-23T04:45:14.311Z,1.83
2019-04-23T04:46:21.794Z,1.73
2019-04-23T04:46:59.239Z,2.30
2019-04-23T04:48:00.500Z,1.70
2019-04-23T04:49:12.055Z,2.00
2019-04-23T04:50:35.224Z,2.00
2019-04-23T04:51:31.567Z,1.80
2019-04-23T04:54:44.391Z,1.60
2019-04-23T04:56:42.613Z,1.80
2019-04-23T04:57:52.317Z,1.77
2019-04-23T05:01:08.243Z,1.87
2019-04-23T05:02:14.559Z,1.97
2019-04-23T05:04:26.936Z,1.93
2019-04-23T05:06:01.790Z,2.00
2019-04-23T05:08:38.327Z,1.80
2019-04-23T05:09:48.524Z,2.00
2019-04-23T05:12:01.409Z,2.43
2019-04-23T05:13:09.021Z,2.03
2019-04-23T05:15:03.152Z,1.80
2019-04-23T05:16:07.979Z,2.30
2019-04-23T05:17:18.282Z,1.60
2019-04-23T05:19:31.605Z,1.80
2019-04-23T05:20:32.939Z,2.00
2019-04-23T05:22:40.828Z,1.90
2019-04-23T05:24:43.343Z,2.17
2019-04-23T05:25:44.768Z,2.07
2019-04-23T05:26:37.626Z,2.10
2019-04-23T05:28:05.629Z,1.93
2019-04-23T05:29:06.370Z,1.93
2019-04-23T05:30:12.892Z,2.13
2019-04-23T05:31:17.240Z,1.67
2019-04-23T05:32:12.061Z,1.70
2019-04-23T05:33:21.911Z,1.97
2019-04-23T05:34:24.389Z,2.00
2019-04-23T05:37:52.936Z,2.00
2019-04-23T05:39:45.438Z,1.50
2019-04-23T05:40:53.652Z,2.00
2019-04-23T05:41:53.623Z,2.07
2019-04-23T05:42:58.708Z,2.10
2019-04-23T05:45:08.239Z,1.67
2019-04-23T05:46:22.283Z,1.70
2019-04-23T05:47:23.104Z,1.90
2019-04-23T05:49:29.302Z,2.10
2019-04-23T05:50:44.457Z,1.73
2019-04-23T05:51:48.640Z,2.30
2019-04-23T05:52:45.861Z,1.70
2019-04-23T05:53:51.008Z,2.30
2019-04-23T05:54:56.270Z,2.20
2019-04-23T05:58:08.865Z,6.27
2019-04-23T05:59:14.416Z,6.10
2019-04-23T06:00:19.449Z,6.77
2019-04-23T06:01:45.675Z,6.67
2019-04-23T06:02:25.995Z,6.47
2019-04-23T06:03:29.385Z,6.87
2019-04-23T06:04:37.002Z,6.47
2019-04-23T06:05:46.451Z,5.50
2019-04-23T06:06:55.785Z,6.30
2019-04-23T06:07:57.899Z,6.17
2019-04-23T06:11:16.981Z,5.77
2019-04-23T06:13:22.538Z,5.50
2019-04-23T06:14:27.099Z,5.63
2019-04-23T06:15:26.774Z,5.40
2019-04-23T06:16:36.259Z,5.80
2019-04-23T06:17:31.791Z,5.90
2019-04-23T06:19:43.157Z,4.90
2019-04-23T06:23:02.009Z,4.70
2019-04-23T06:24:10.377Z,4.77
2019-04-23T06:25:12.596Z,5.60
2019-04-23T06:27:24.354Z,5.20
2019-04-23T06:28:21.271Z,5.30
2019-04-23T06:29:32.160Z,5.20
2019-04-23T06:31:40.866Z,5.13
2019-04-23T06:32:37.714Z,4.73
2019-04-23T06:33:48.062Z,5.27
2019-04-23T06:35:58.363Z,5.00
2019-04-23T06:36:57.056Z,5.37
2019-04-23T06:39:13.336Z,4.97
2019-04-23T06:40:17.936Z,4.40
2019-04-23T06:41:23.340Z,5.10
2019-04-23T06:42:21.200Z,5.10
2019-04-23T06:43:33.070Z,5.27
2019-04-23T06:44:32.313Z,4.30
2019-04-23T06:47:42.970Z,5.10
2019-04-23T06:48:57.441Z,5.40
2019-04-23T06:49:55.580Z,5.43
2019-04-23T06:51:04.278Z,5.23
2019-04-23T06:53:04.550Z,4.73
2019-04-23T06:54:18.592Z,4.90
2019-04-23T06:55:20.375Z,5.10
2019-04-23T06:56:24.979Z,5.70
2019-04-23T06:57:52.260Z,5.30
2019-04-23T06:59:35.274Z,4.80
2019-04-23T07:01:53.159Z,5.50
2019-04-23T07:02:54.160Z,5.90
2019-04-23T07:03:57.028Z,6.13
2019-04-23T07:05:03.338Z,5.57
2019-04-23T07:07:31.625Z,5.03
2019-04-23T07:08:22.452Z,5.80
2019-04-23T07:09:13.376Z,4.80
2019-04-23T07:10:29.890Z,4.90
2019-04-23T07:11:39.883Z,3.90
2019-04-23T07:12:36.392Z,4.47
2019-04-23T07:13:47.158Z,4.90
2019-04-23T07:15:04.444Z,4.80
2019-04-23T07:16:01.189Z,4.93
2019-04-23T07:16:54.568Z,4.50
2019-04-23T07:17:54.322Z,4.90
2019-04-23T07:19:04.920Z,5.13
2019-04-23T07:21:13.351Z,4.50
2019-04-23T07:22:16.041Z,5.37
2019-04-23T07:23:19.370Z,5.17
2019-04-23T07:24:24.504Z,5.63
2019-04-23T07:25:29.663Z,4.67
2019-04-23T07:26:33.337Z,5.10
2019-04-23T07:27:31.767Z,4.93
2019-04-23T07:28:50.219Z,5.20
2019-04-23T07:31:02.415Z,6.37
2019-04-23T07:33:04.575Z,7.30
2019-04-23T07:36:17.131Z,7.03
2019-04-23T07:37:17.659Z,7.40
2019-04-23T07:38:34.714Z,7.10
2019-04-23T07:39:33.355Z,7.33
2019-04-23T07:40:37.471Z,7.10
2019-04-23T07:42:56.697Z,6.90
2019-04-23T07:43:49.401Z,7.43
2019-04-23T07:46:08.139Z,7.50
2019-04-23T07:47:11.356Z,7.00
2019-04-23T07:48:10.847Z,7.80
2019-04-23T07:49:11.972Z,7.00
2019-04-23T07:50:23.438Z,7.00
2019-04-23T07:51:22.922Z,6.63
2019-04-23T07:53:29.300Z,6.90
2019-04-23T07:54:40.830Z,7.10
2019-04-23T07:55:49.878Z,7.30
2019-04-23T07:56:49.001Z,6.40
2019-04-23T07:57:50.639Z,7.63
2019-04-23T07:58:52.512Z,6.80
2019-04-23T08:00:00.890Z,7.17
2019-04-23T08:00:57.128Z,7.20
2019-04-23T08:02:13.913Z,7.20
2019-04-23T08:03:17.680Z,7.40
2019-04-23T08:04:16.881Z,6.63
2019-04-23T08:05:22.582Z,6.80
2019-04-23T08:06:24.596Z,7.67
2019-04-23T08:07:35.820Z,7.00
2019-04-23T08:08:36.448Z,7.03
2019-04-23T08:09:48.553Z,6.70
2019-04-23T08:11:25.612Z,7.10
2019-04-23T08:13:15.590Z,7.27
2019-04-23T08:14:12.985Z,7.23
2019-04-23T08:15:23.173Z,7.20
2019-04-23T08:16:34.299Z,8.40
2019-04-23T08:17:27.868Z,9.13
2019-04-23T08:19:51.290Z,7.97
2019-04-23T08:20:49.609Z,8.93
2019-04-23T08:21:58.392Z,8.83
2019-04-23T08:22:53.779Z,8.63
2019-04-23T08:24:05.853Z,9.70
2019-04-23T08:25:08.377Z,8.10
2019-04-23T08:26:22.474Z,8.57
2019-04-23T08:27:16.381Z,8.63
2019-04-23T08:28:25.466Z,8.70
2019-04-23T08:29:22.095Z,8.90
2019-04-23T08:30:25.526Z,8.30
2019-04-23T08:31:40.286Z,9.40
2019-04-23T08:32:55.394Z,9.17
2019-04-23T08:33:54.189Z,7.80
2019-04-23T08:34:56.369Z,8.40
2019-04-23T08:35:54.191Z,8.87
2019-04-23T08:38:11.629Z,8.63
2019-04-23T08:39:02.784Z,9.13
2019-04-23T08:40:15.105Z,8.23
2019-04-23T08:44:36.873Z,9.13
2019-04-23T08:45:29.977Z,8.70
2019-04-23T08:46:50.965Z,8.30
2019-04-23T08:47:42.206Z,8.93
2019-04-23T08:51:03.527Z,8.30
2019-04-23T08:52:10.489Z,8.30
2019-04-23T08:53:24.819Z,8.20
2019-04-23T08:54:26.803Z,8.67
2019-04-23T08:55:21.126Z,8.47
2019-04-23T08:56:27.483Z,8.50
2019-04-23T08:57:27.277Z,8.73
2019-04-23T08:58:31.982Z,8.23
2019-04-23T09:00:47.364Z,9.20
2019-04-23T09:02:12.153Z,9.53
2019-04-23T09:02:59.707Z,8.83
2019-04-23T09:03:52.657Z,9.67
2019-04-23T09:05:08.778Z,8.97
2019-04-23T09:06:05.817Z,8.10
2019-04-23T09:07:16.932Z,8.83
2019-04-23T09:09:24.876Z,8.30
2019-04-23T09:10:25.623Z,9.03
2019-04-23T09:11:43.469Z,9.50
2019-04-23T09:12:34.986Z,9.53
2019-04-23T09:13:53.202Z,9.20
2019-04-23T09:14:44.803Z,9.03
2019-04-23T09:15:52.691Z,8.93
2019-04-23T09:16:52.855Z,9.20
2019-04-23T09:19:08.818Z,8.73
2019-04-23T09:21:09.676Z,8.80
2019-04-23T09:22:22.991Z,8.23
2019-04-23T09:23:28.375Z,8.83
2019-04-23T09:24:25.797Z,8.47
2019-04-23T09:25:51.041Z,8.33
2019-04-23T09:26:33.262Z,8.50
2019-04-23T09:27:42.411Z,9.20
2019-04-23T09:30:07.624Z,8.63
2019-04-23T09:31:04.452Z,7.50
2019-04-23T09:33:06.431Z,8.20
2019-04-23T09:34:11.287Z,9.07
2019-04-23T09:36:22.381Z,8.67
2019-04-23T09:37:26.840Z,8.80
2019-04-23T09:38:50.258Z,8.77
2019-04-23T09:39:34.769Z,8.37
2019-04-23T09:41:38.026Z,9.07
2019-04-23T09:43:08.141Z,8.60
2019-04-23T09:43:58.942Z,9.23
2019-04-23T09:45:12.989Z,8.83
2019-04-23T09:46:07.750Z,8.60
2019-04-23T09:47:13.978Z,8.70
2019-04-23T09:48:04.655Z,9.10
2019-04-23T09:49:20.667Z,8.97
2019-04-23T09:50:20.190Z,8.17
2019-04-23T09:51:33.083Z,8.97
2019-04-23T09:52:36.792Z,8.90
2019-04-23T09:53:34.467Z,8.63
2019-04-23T09:54:52.884Z,8.00
2019-04-23T09:55:43.740Z,8.70
2019-04-23T09:57:03.911Z,8.00
2019-04-23T09:58:02.251Z,8.90
2019-04-23T09:59:08.825Z,7.97
2019-04-23T10:00:08.730Z,7.97
2019-04-23T10:01:20.816Z,9.03
2019-04-23T10:02:19.395Z,8.50
2019-04-23T10:03:16.395Z,8.60
2019-04-23T10:04:19.467Z,8.33
2019-04-23T10:05:22.658Z,8.80
2019-04-23T10:06:20.856Z,8.33
2019-04-23T10:07:30.014Z,8.50
2019-04-23T10:08:31.245Z,8.10
2019-04-23T10:09:28.225Z,8.77
2019-04-23T10:10:32.497Z,8.93
2019-04-23T10:11:37.436Z,8.53
2019-04-23T10:12:40.076Z,9.17
2019-04-23T10:13:45.049Z,8.90
2019-04-23T10:14:59.313Z,8.10
2019-04-23T10:15:53.950Z,8.77
2019-04-23T10:16:58.061Z,9.40
2019-04-23T10:18:02.477Z,9.33
2019-04-23T10:19:06.049Z,8.50
2019-04-23T10:20:10.826Z,8.20
2019-04-23T10:21:15.323Z,8.30
2019-04-23T10:22:19.506Z,8.23
2019-04-23T10:23:23.220Z,8.73
2019-04-23T10:24:27.624Z,8.03
2019-04-23T10:25:31.970Z,8.10
2019-04-23T10:26:37.717Z,7.47
2019-04-23T10:27:41.315Z,8.40
2019-04-23T10:28:44.352Z,8.10
2019-04-23T10:29:47.877Z,8.50
2019-04-23T10:30:54.448Z,8.47
2019-04-23T10:31:55.843Z,8.80
2019-04-23T10:33:01.272Z,8.00
2019-04-23T10:34:04.523Z,7.93
2019-04-23T10:35:20.930Z,8.27
2019-04-23T10:36:15.827Z,8.60
2019-04-23T10:37:29.962Z,8.40
2019-04-23T10:38:22.597Z,8.90
2019-04-23T10:39:33.599Z,9.93
2019-04-23T10:40:38.010Z,8.13
2019-04-23T10:41:38.426Z,9.10
2019-04-23T10:42:45.638Z,9.10
2019-04-23T10:43:48.402Z,8.20
2019-04-23T10:44:53.095Z,8.90
2019-04-23T10:46:15.097Z,8.23
2019-04-23T10:47:30.220Z,9.27
2019-04-23T10:49:47.497Z,7.80
2019-04-23T10:50:47.643Z,8.27
2019-04-23T10:51:51.908Z,8.07
2019-04-23T10:53:02.476Z,9.17
2019-04-23T10:54:03.456Z,8.60
2019-04-23T10:54:59.964Z,8.87
2019-04-23T10:56:21.189Z,9.93
2019-04-23T10:57:15.911Z,8.40
2019-04-23T10:59:28.740Z,9.50
2019-04-23T11:00:30.447Z,9.00
2019-04-23T11:01:42.024Z,8.60
2019-04-23T11:02:39.057Z,9.57
2019-04-23T11:04:02.198Z,8.30
2019-04-23T11:04:53.971Z,9.60
2019-04-23T11:05:58.831Z,9.73
2019-04-23T11:06:50.113Z,9.07
2019-04-23T11:07:56.598Z,8.90
2019-04-23T11:09:23.066Z,8.63
2019-04-23T11:10:22.154Z,9.00
2019-04-23T11:11:15.209Z,8.63
2019-04-23T11:12:32.978Z,9.10
2019-04-23T11:13:41.019Z,8.53
2019-04-23T11:14:31.057Z,9.33
2019-04-23T11:17:45.881Z,9.10
2019-04-23T11:19:56.710Z,8.93
2019-04-23T11:20:58.680Z,8.83
2019-04-23T11:22:24.121Z,7.97
2019-04-23T11:23:04.920Z,8.60
2019-04-23T11:24:23.636Z,8.87
2019-04-23T11:25:29.945Z,9.37
2019-04-23T11:26:32.764Z,8.60
2019-04-23T11:27:28.101Z,8.70
2019-04-23T11:28:32.780Z,8.20
2019-04-23T11:29:40.763Z,8.07
2019-04-23T11:33:00.853Z,8.30
2019-04-23T11:33:59.482Z,8.73
2019-04-23T11:35:17.641Z,9.53
2019-04-23T11:36:33.283Z,9.63
2019-04-23T11:37:23.118Z,8.43
2019-04-23T11:38:44.101Z,9.97
2019-04-23T11:39:26.766Z,8.10
2019-04-23T11:41:37.937Z,8.50
2019-04-23T11:42:42.765Z,8.50
2019-04-23T11:43:37.736Z,8.50
2019-04-23T11:44:49.126Z,8.50
2019-04-23T11:47:08.301Z,9.30
2019-04-23T11:48:21.874Z,8.37
2019-04-23T11:49:34.566Z,9.57
2019-04-23T11:50:39.683Z,8.70
2019-04-23T11:53:27.817Z,9.17
2019-04-23T11:54:33.268Z,8.67
2019-04-23T11:57:07.961Z,8.43
2019-04-23T11:58:46.028Z,9.13
2019-04-23T12:01:11.448Z,9.20
2019-04-23T12:01:56.419Z,8.90
2019-04-23T12:05:33.498Z,9.77
2019-04-23T12:14:04.322Z,9.47
2019-04-23T12:15:13.505Z,9.53
2019-04-23T12:16:21.462Z,9.40
2019-04-23T12:17:20.948Z,10.53
2019-04-23T12:18:27.227Z,9.40
2019-04-23T12:19:54.978Z,9.03
2019-04-23T12:23:08.960Z,9.20
2019-04-23T12:23:54.781Z,11.37
2019-04-23T12:25:52.825Z,9.50
2019-04-23T12:28:06.669Z,9.73
2019-04-23T12:29:21.125Z,9.73
2019-04-23T12:30:20.160Z,9.63
2019-04-23T12:31:26.697Z,9.37
2019-04-23T12:33:38.484Z,9.87
2019-04-23T12:34:46.929Z,9.50
2019-04-23T12:35:35.505Z,9.50
2019-04-23T12:36:43.791Z,9.03
2019-04-23T12:37:52.427Z,9.80
2019-04-23T12:38:48.988Z,9.83
2019-04-23T12:41:21.163Z,9.80
2019-04-23T12:42:19.727Z,9.20
2019-04-23T12:44:20.175Z,9.37
2019-04-23T12:46:29.969Z,8.83
2019-04-23T12:47:43.682Z,10.20
2019-04-23T12:48:50.831Z,10.03
2019-04-23T12:50:13.260Z,9.30
2019-04-23T12:51:55.973Z,9.87
2019-04-23T12:53:01.186Z,9.03
2019-04-23T12:54:07.362Z,9.60
2019-04-23T12:55:14.491Z,9.30
2019-04-23T12:56:20.845Z,9.80
2019-04-23T12:59:27.266Z,9.80
2019-04-23T13:00:35.890Z,8.80
2019-04-23T13:01:42.685Z,10.53
2019-04-23T13:02:45.168Z,9.27
2019-04-23T13:04:03.461Z,9.93
2019-04-23T13:04:55.034Z,9.70
2019-04-23T13:05:51.243Z,9.30
2019-04-23T13:07:09.195Z,9.93
2019-04-23T13:08:15.749Z,9.53
2019-04-23T13:09:28.822Z,9.63
2019-04-23T13:10:27.350Z,9.60
2019-04-23T13:11:33.347Z,10.27
2019-04-23T13:13:44.459Z,9.80
2019-04-23T13:14:42.035Z,11.00
2019-04-23T13:15:40.836Z,9.90
2019-04-23T13:16:53.973Z,10.47
2019-04-23T13:17:58.830Z,10.13
2019-04-23T13:20:00.569Z,10.17
2019-04-23T13:21:07.050Z,9.70
2019-04-23T13:23:16.916Z,10.87
2019-04-23T13:24:17.181Z,10.73
2019-04-23T13:25:28.286Z,9.87
2019-04-23T13:26:24.818Z,9.40
2019-04-23T13:27:39.986Z,10.07
2019-04-23T13:31:51.818Z,11.00
2019-04-23T13:33:02.870Z,9.50
2019-04-23T13:33:49.633Z,9.70
2019-04-23T13:35:18.540Z,9.63
2019-04-23T13:37:26.264Z,10.53
2019-04-23T13:38:28.199Z,10.30
2019-04-23T13:39:28.172Z,10.80
2019-04-23T13:40:37.532Z,9.73
2019-04-23T13:41:33.373Z,9.93
2019-04-23T13:43:42.615Z,10.63
2019-04-23T13:46:03.743Z,9.47
2019-04-23T13:46:59.994Z,10.60
2019-04-23T13:48:07.023Z,9.20
2019-04-23T13:49:07.678Z,10.30
2019-04-23T13:50:24.365Z,10.60
2019-04-23T13:51:21.133Z,10.30
2019-04-23T13:52:47.818Z,10.90
2019-04-23T13:53:35.478Z,9.70
2019-04-23T13:54:59.949Z,9.60
2019-04-23T13:55:39.129Z,9.47
2019-04-23T13:57:12.921Z,10.60
2019-04-23T13:58:51.828Z,9.63
2019-04-23T13:59:56.205Z,10.60
2019-04-23T14:01:13.813Z,10.53
2019-04-23T14:02:17.607Z,9.90
2019-04-23T14:03:13.663Z,9.60
2019-04-23T14:04:24.078Z,9.83
2019-04-23T14:05:24.031Z,10.27
2019-04-23T14:07:34.671Z,9.70
2019-04-23T14:09:45.542Z,10.13
2019-04-23T14:11:38.892Z,10.40
2019-04-23T14:13:12.474Z,10.13
2019-04-23T14:15:04.488Z,9.40
2019-04-23T14:17:26.363Z,10.50
2019-04-23T14:18:43.953Z,10.40
2019-04-23T14:19:12.791Z,9.77
2019-04-23T14:20:21.544Z,10.93
2019-04-23T14:21:31.685Z,9.43
2019-04-23T14:22:51.306Z,10.30
2019-04-23T14:23:54.089Z,10.30
2019-04-23T14:24:59.271Z,10.67
2019-04-23T14:26:05.228Z,9.43
2019-04-23T14:26:50.630Z,10.80
2019-04-23T14:28:05.829Z,11.17
2019-04-23T14:29:12.865Z,10.50
2019-04-23T14:30:13.140Z,11.37
2019-04-23T14:32:15.647Z,10.80
2019-04-23T14:34:50.866Z,10.50
2019-04-23T14:36:36.141Z,10.13
2019-04-23T14:37:59.061Z,11.03
2019-04-23T14:38:43.906Z,10.30
2019-04-23T14:39:47.767Z,10.10
2019-04-23T14:41:07.812Z,11.03
2019-04-23T14:42:09.892Z,10.20
2019-04-23T14:43:12.176Z,9.77
2019-04-23T14:44:10.455Z,10.50
2019-04-23T14:45:29.517Z,10.47
2019-04-23T14:47:38.396Z,9.97
2019-04-23T14:48:31.345Z,10.67
2019-04-23T14:51:47.777Z,9.33
2019-04-23T14:52:50.509Z,9.30
2019-04-23T14:57:11.218Z,9.67
2019-04-23T14:58:18.194Z,10.70
2019-04-23T14:59:07.268Z,10.20
2019-04-23T15:00:17.472Z,10.37
2019-04-23T15:01:27.247Z,9.13
2019-04-23T15:02:28.748Z,9.70
2019-04-23T15:03:35.324Z,9.90
2019-04-23T15:05:52.237Z,9.23
2019-04-23T15:06:54.886Z,10.40
2019-04-23T15:07:53.198Z,10.47
2019-04-23T15:08:57.301Z,10.10
2019-04-23T15:10:05.801Z,9.57
2019-04-23T15:11:13.070Z,8.87
2019-04-23T15:12:17.605Z,8.70
2019-04-23T15:13:15.900Z,10.30
2019-04-23T15:14:19.506Z,9.77
2019-04-23T15:15:19.316Z,10.00
2019-04-23T15:17:28.468Z,9.10
2019-04-23T15:18:48.787Z,9.13
2019-04-23T15:19:40.158Z,9.43
2019-04-23T15:20:46.359Z,9.33
2019-04-23T15:22:05.265Z,9.80
2019-04-23T15:24:04.004Z,10.07
2019-04-23T15:25:19.471Z,9.70
2019-04-23T15:28:09.061Z,9.10
2019-04-23T15:29:04.500Z,10.13
2019-04-23T15:30:25.431Z,9.77
2019-04-23T15:31:33.316Z,9.30
2019-04-23T15:32:46.832Z,8.90
2019-04-23T15:34:51.974Z,9.60
2019-04-23T15:36:04.186Z,9.60
2019-04-23T15:37:23.036Z,9.93
2019-04-23T15:39:19.593Z,9.40
2019-04-23T15:40:15.190Z,9.77
2019-04-23T15:41:21.297Z,9.30
2019-04-23T15:42:16.632Z,9.70
2019-04-23T15:43:22.460Z,9.27
2019-04-23T15:44:42.027Z,9.10
2019-04-23T15:45:41.602Z,9.30
2019-04-23T15:46:38.898Z,9.30
2019-04-23T15:47:49.356Z,9.70
2019-04-23T15:48:58.892Z,9.40
2019-04-23T15:50:02.823Z,9.20
2019-04-23T15:51:04.904Z,9.37
2019-04-23T15:52:03.808Z,8.90
2019-04-23T15:55:15.148Z,8.93
2019-04-23T15:57:49.658Z,8.93
2019-04-23T16:00:42.270Z,10.10
2019-04-23T16:01:44.299Z,9.33
2019-04-23T16:02:22.179Z,8.90
2019-04-23T16:03:27.480Z,9.33
2019-04-23T16:04:31.653Z,9.40
2019-04-23T16:05:35.024Z,8.40
2019-04-23T16:06:41.420Z,8.60
2019-04-23T16:08:06.095Z,9.73
2019-04-23T16:09:06.345Z,10.00
2019-04-23T16:10:25.142Z,9.37
2019-04-23T16:11:33.605Z,9.67
2019-04-23T16:12:25.852Z,9.10
2019-04-23T16:13:40.596Z,9.63
2019-04-23T16:14:42.756Z,9.23
2019-04-23T16:15:48.361Z,9.17
2019-04-23T16:17:53.565Z,8.50
2019-04-23T16:19:05.740Z,8.60
2019-04-23T16:21:10.991Z,8.97
2019-04-23T16:23:16.835Z,9.13
2019-04-23T16:25:36.375Z,7.83
2019-04-23T16:27:32.008Z,8.17
2019-04-23T16:29:00.344Z,8.93
2019-04-23T16:29:54.073Z,8.63
2019-04-23T16:30:46.229Z,8.30
2019-04-23T16:31:54.780Z,7.97
2019-04-23T16:33:03.676Z,8.00
2019-04-23T16:34:13.589Z,7.87
2019-04-23T16:35:19.382Z,8.20
2019-04-23T16:36:11.200Z,8.13
2019-04-23T16:37:20.133Z,8.20
2019-04-23T16:38:32.503Z,8.40
2019-04-23T16:39:21.549Z,8.30
2019-04-23T16:40:33.221Z,7.73
2019-04-23T16:41:34.914Z,8.23
2019-04-23T16:42:38.134Z,7.73
2019-04-23T16:44:56.846Z,9.00
2019-04-23T16:45:51.810Z,8.50
2019-04-23T16:48:06.585Z,8.03
2019-04-23T16:49:15.193Z,8.50
2019-04-23T16:50:11.166Z,7.33
2019-04-23T16:52:24.474Z,7.90
2019-04-23T16:54:36.785Z,7.80
2019-04-23T16:55:38.263Z,7.47
2019-04-23T16:56:55.967Z,7.43
2019-04-23T16:57:54.902Z,7.90
2019-04-23T16:58:54.404Z,7.67
2019-04-23T17:00:08.181Z,7.30
2019-04-23T17:01:05.914Z,7.40
2019-04-23T17:02:11.977Z,7.73
2019-04-23T17:04:19.600Z,7.40
2019-04-23T17:05:20.167Z,7.00
2019-04-23T17:07:22.145Z,7.43
2019-04-23T17:08:42.564Z,6.53
2019-04-23T17:09:42.432Z,7.77
2019-04-23T17:10:46.734Z,7.90
2019-04-23T17:11:41.645Z,6.70
2019-04-23T17:12:54.805Z,7.00
2019-04-23T17:13:59.003Z,7.70
2019-04-23T17:15:05.438Z,7.60
2019-04-23T17:17:08.115Z,7.27
2019-04-23T17:18:16.929Z,7.87
2019-04-23T17:20:27.180Z,7.57
2019-04-23T17:22:33.749Z,7.10
2019-04-23T17:23:52.300Z,6.70
2019-04-23T17:24:40.561Z,7.07
2019-04-23T17:25:54.296Z,7.70
2019-04-23T17:27:05.483Z,6.67
2019-04-23T17:28:05.591Z,7.57
2019-04-23T17:29:10.927Z,7.17
2019-04-23T17:30:09.368Z,6.73
2019-04-23T17:31:26.292Z,7.20
2019-04-23T17:32:09.910Z,7.30
2019-04-23T17:34:30.849Z,6.50
2019-04-23T17:35:31.598Z,6.87
2019-04-23T17:36:44.368Z,6.73
2019-04-23T17:37:41.394Z,7.70
2019-04-23T17:38:51.421Z,7.77
2019-04-23T17:40:01.824Z,7.50
2019-04-23T17:40:59.860Z,7.17
2019-04-23T17:42:05.388Z,7.83
2019-04-23T17:43:01.541Z,7.03
2019-04-23T17:44:24.181Z,7.07
2019-04-23T17:46:18.131Z,7.40
2019-04-23T17:47:22.452Z,6.83
2019-04-23T17:48:24.067Z,6.40
2019-04-23T17:49:36.777Z,7.70
2019-04-23T17:50:37.937Z,7.67
2019-04-23T17:51:31.067Z,6.20
2019-04-23T17:52:44.036Z,6.80
2019-04-23T17:53:52.529Z,6.60
2019-04-23T17:56:08.374Z,7.30
2019-04-23T17:58:06.270Z,7.20
2019-04-23T17:59:14.043Z,7.70
2019-04-23T18:00:25.127Z,6.23
2019-04-23T18:01:20.344Z,6.53
2019-04-23T18:03:30.633Z,7.10